Main page
METAR-TAF:

METAR-TAF

Airports :

La Paz International Airport

La Paz, Mexico

latitude: 24-04N, longitude: 110-22W, elevation: 21 m

Current weather observation

The report was made 41 minutes ago, at 23:40 UTC
Wind 10 kt from the North/Northwest
Temperature 27°C
Humidity 24%
Pressure 1015 hPa
Visibility: 16.1 km
Few clouds at a height of 20000 ft

METAR: MMLP 072340Z 33010KT 10SM FEW200 27/05 A2997 RMK SLP148 57005 940 8/008

Time: 17:21 (00:21 UTC)

Forecast

The report was made 7 hours and 2 minutes ago, at 17:19 UTC
Forecast valid from 07 at 18 UTC to 08 at 18 UTC
Wind 10 kt from the North/Northwest
Visibility: 10 km
Clear sky
Becoming
from 08 at 02 UTC to 08 at 03 UTC
Wind kt from the North
From 08 at 1700 UTC
Wind 8 kt from the North/Northwest
Visibility: 10 km
Scattered clouds at a height of 20000 ft

TAF: MMLP 071719Z 0718/0818 34010KT P6SM SKC BECMG 0802/0803 00000KT FM081700 34008KT P6SM SCT200

Weather observations and forecasts of more than 4000 airports (METAR and TAF reports).

The available stations are represented by yellow and red dots on the map.

Hover mouse over dot to see the name of the station.

Then click to see weather observations and forecasts.

To change the map : click on the green buttons with a black cross to zoom in, on the green button with a dash to zoom out, or on the green arrows for adjacent maps.


METAR-TAF: